Weather at Leopoldsburg Airfield

Public forecast

Using degrees Celsius for public forecast. Weather courtesy of forecast.io.

Closest aviation weather report (METAR) to Leopoldsburg Airfield

Closest report is Kleine Brogel Air Base, 6.8 nm (12.6 km) ENE.

2024/07/24 23:55 (retrieved 37 minutes ago)

EBBL 242355Z AUTO VRB01KT 9999 FEW140/// 13/12 Q1018 BLU

Closest aviation forecast (TAF) to Leopoldsburg Airfield

Closest forecast is Geilenkirchen Air Base, 29.4 nm (54.4 km) ESE.

2024/07/24 21:44 (retrieved 3 hours ago)

TAF ETNG 242000Z 2421/2512 VRB02KT CAVOK BECMG 2508/2510 22005KT